createdAt,value
2018-04-13T00:01:30.442Z,58.60
2018-04-13T00:03:57.438Z,58.60
2018-04-13T00:06:24.427Z,58.60
2018-04-13T00:08:51.416Z,58.70
2018-04-13T00:11:18.400Z,58.70
2018-04-13T00:13:45.405Z,58.70
2018-04-13T00:16:12.392Z,58.60
2018-04-13T00:18:39.398Z,58.60
2018-04-13T00:21:06.389Z,58.60
2018-04-13T00:23:33.381Z,58.60
2018-04-13T00:26:00.378Z,58.60
2018-04-13T00:28:27.362Z,58.70
2018-04-13T00:30:54.356Z,58.70
2018-04-13T00:33:21.341Z,58.70
2018-04-13T00:35:49.096Z,58.70
2018-04-13T00:38:16.081Z,58.70
2018-04-13T00:40:43.074Z,58.90
2018-04-13T00:43:10.067Z,58.80
2018-04-13T00:45:37.058Z,58.80
2018-04-13T00:48:04.042Z,58.80
2018-04-13T00:50:31.796Z,58.70
2018-04-13T00:53:05.414Z,58.80
2018-04-13T00:55:32.422Z,58.80
2018-04-13T00:57:59.409Z,58.70
2018-04-13T01:00:26.396Z,58.60
2018-04-13T01:02:53.385Z,58.60
2018-04-13T01:05:21.141Z,58.80
2018-04-13T01:07:48.898Z,58.80
2018-04-13T01:10:16.655Z,59.30
2018-04-13T01:12:43.647Z,58.80
2018-04-13T01:15:10.687Z,58.70
2018-04-13T01:17:37.642Z,58.70
2018-04-13T01:20:04.630Z,58.70
2018-04-13T01:22:31.618Z,58.70
2018-04-13T01:24:58.609Z,58.70
2018-04-13T01:27:25.619Z,58.70
2018-04-13T01:29:52.613Z,58.70
2018-04-13T01:32:19.593Z,58.70
2018-04-13T01:34:46.584Z,58.60
2018-04-13T01:37:13.569Z,58.70
2018-04-13T01:39:41.333Z,58.80
2018-04-13T01:42:09.089Z,58.80
2018-04-13T01:44:36.082Z,58.60
2018-04-13T01:47:03.073Z,58.70
2018-04-13T01:49:30.063Z,58.70
2018-04-13T01:51:57.050Z,58.60
2018-04-13T01:54:24.037Z,58.70
2018-04-13T01:56:51.789Z,58.60
2018-04-13T01:59:19.545Z,58.60
2018-04-13T02:01:47.298Z,59.00
2018-04-13T02:04:14.285Z,58.50
2018-04-13T02:06:41.273Z,58.60
2018-04-13T02:09:08.286Z,58.50
2018-04-13T02:11:35.282Z,58.60
2018-04-13T02:14:02.278Z,58.60
2018-04-13T02:16:29.270Z,58.70
2018-04-13T02:18:56.380Z,58.60
2018-04-13T02:21:24.090Z,58.50
2018-04-13T02:23:51.077Z,58.50
2018-04-13T02:26:18.067Z,58.50
2018-04-13T02:28:45.053Z,58.60
2018-04-13T02:31:12.046Z,58.50
2018-04-13T02:33:39.035Z,58.50
2018-04-13T02:36:06.791Z,58.60
2018-04-13T02:38:34.554Z,58.50
2018-04-13T02:41:02.317Z,59.20
2018-04-13T02:43:30.076Z,58.60
2018-04-13T02:45:57.833Z,58.60
2018-04-13T02:48:24.826Z,58.60
2018-04-13T02:50:51.813Z,58.60
2018-04-13T02:53:18.802Z,58.60
2018-04-13T02:55:45.790Z,58.60
2018-04-13T02:58:12.778Z,58.70
2018-04-13T03:00:40.535Z,58.70
2018-04-13T03:03:08.291Z,58.70
2018-04-13T03:05:36.049Z,59.20
2018-04-13T03:08:03.042Z,58.80
2018-04-13T03:10:30.037Z,58.90
2018-04-13T03:12:57.030Z,58.90
2018-04-13T03:15:24.022Z,58.80
2018-04-13T03:17:51.066Z,58.80
2018-04-13T03:20:18.062Z,58.80
2018-04-13T03:22:45.065Z,58.80
2018-04-13T03:25:12.059Z,58.80
2018-04-13T03:27:39.055Z,58.80
2018-04-13T03:30:06.053Z,58.80
2018-04-13T03:32:33.054Z,58.70
2018-04-13T03:35:00.046Z,58.70
2018-04-13T03:37:27.035Z,58.80
2018-04-13T03:39:54.030Z,58.80
2018-04-13T03:42:21.019Z,58.80
2018-04-13T03:44:48.009Z,58.80
2018-04-13T03:47:14.997Z,58.80
2018-04-13T03:49:41.990Z,58.80
2018-04-13T03:52:09.761Z,58.80
2018-04-13T03:54:36.745Z,58.70
2018-04-13T03:57:03.738Z,58.70
2018-04-13T03:59:31.493Z,58.80
2018-04-13T04:01:59.258Z,58.90
2018-04-13T04:04:27.022Z,58.90
2018-04-13T04:06:54.781Z,58.80
2018-04-13T04:09:22.619Z,58.90
2018-04-13T04:11:49.637Z,58.70
2018-04-13T04:14:16.638Z,58.90
2018-04-13T04:16:43.632Z,58.70
2018-04-13T04:19:10.642Z,58.70
2018-04-13T04:21:44.431Z,58.80
2018-04-13T04:24:17.447Z,58.70
2018-04-13T04:26:47.416Z,58.70
2018-04-13T04:29:14.413Z,58.80
2018-04-13T04:31:41.404Z,58.60
2018-04-13T04:34:08.395Z,59.30
2018-04-13T04:36:35.389Z,58.70
2018-04-13T04:39:02.386Z,58.70
2018-04-13T04:41:29.382Z,58.70
2018-04-13T04:43:57.137Z,58.70
2018-04-13T04:46:24.139Z,58.70
2018-04-13T04:48:51.902Z,59.40
2018-04-13T04:51:19.648Z,58.80
2018-04-13T04:53:47.418Z,59.20
2018-04-13T04:56:15.176Z,58.60
2018-04-13T04:58:42.157Z,58.60
2018-04-13T05:01:09.245Z,58.60
2018-04-13T05:03:36.179Z,58.70
2018-04-13T05:06:03.178Z,58.60
2018-04-13T05:08:30.933Z,59.10
2018-04-13T05:10:58.707Z,59.10
2018-04-13T05:13:25.702Z,58.90
2018-04-13T05:15:52.689Z,59.70
2018-04-13T05:18:20.447Z,59.00
2018-04-13T05:20:47.434Z,58.90
2018-04-13T05:23:14.422Z,58.90
2018-04-13T05:25:41.414Z,58.80
2018-04-13T05:28:08.410Z,58.90
2018-04-13T05:30:35.397Z,58.80
2018-04-13T05:33:02.402Z,58.90
2018-04-13T05:35:29.389Z,58.80
2018-04-13T05:37:56.378Z,58.90
2018-04-13T05:40:23.364Z,58.90
2018-04-13T05:42:51.122Z,58.80
2018-04-13T05:45:18.894Z,58.80
2018-04-13T05:47:45.878Z,58.80
2018-04-13T05:50:12.874Z,58.80
2018-04-13T05:52:40.636Z,58.80
2018-04-13T05:55:07.619Z,58.80
2018-04-13T05:57:34.625Z,58.80
2018-04-13T06:00:02.408Z,58.80
2018-04-13T06:02:30.181Z,58.80
2018-04-13T06:04:57.174Z,58.80
2018-04-13T06:07:24.157Z,58.80
2018-04-13T06:09:51.146Z,58.80
2018-04-13T06:12:18.131Z,58.80
2018-04-13T06:14:45.144Z,58.80
2018-04-13T06:17:12.134Z,58.80
2018-04-13T06:19:39.889Z,58.80
2018-04-13T06:22:07.646Z,59.00
2018-04-13T06:24:34.634Z,58.80
2018-04-13T06:27:01.622Z,58.80
2018-04-13T06:29:28.618Z,58.80
2018-04-13T06:31:55.609Z,58.80
2018-04-13T06:34:22.599Z,58.80
2018-04-13T06:36:49.593Z,58.80
2018-04-13T06:39:17.351Z,58.80
2018-04-13T06:41:44.346Z,58.80
2018-04-13T06:44:12.102Z,58.80
2018-04-13T06:46:39.878Z,58.90
2018-04-13T06:49:06.866Z,58.80
2018-04-13T06:51:33.855Z,58.80
2018-04-13T06:54:01.618Z,58.80
2018-04-13T06:56:28.598Z,58.80
2018-04-13T06:58:55.617Z,58.80
2018-04-13T07:01:23.374Z,58.80
2018-04-13T07:03:51.164Z,58.80
2018-04-13T07:06:18.146Z,58.80
2018-04-13T07:08:45.141Z,58.80
2018-04-13T07:11:12.898Z,58.80
2018-04-13T07:13:40.668Z,58.80
2018-04-13T07:16:08.421Z,58.90
2018-04-13T07:18:36.170Z,58.90
2018-04-13T07:21:03.167Z,58.90
2018-04-13T07:23:30.156Z,58.80
2018-04-13T07:25:57.141Z,58.80
2018-04-13T07:28:24.130Z,58.80
2018-04-13T07:30:51.114Z,58.80
2018-04-13T07:33:18.869Z,58.90
2018-04-13T07:35:46.631Z,59.40
2018-04-13T07:38:13.618Z,58.80
2018-04-13T07:40:40.623Z,58.80
2018-04-13T07:43:07.625Z,58.80
2018-04-13T07:45:34.604Z,59.40
2018-04-13T07:48:01.737Z,58.80
2018-04-13T07:50:28.599Z,58.80
2018-04-13T07:52:55.588Z,58.80
2018-04-13T07:55:22.574Z,58.80
2018-04-13T07:57:49.571Z,58.90
2018-04-13T08:00:16.554Z,58.80
2018-04-13T08:02:43.602Z,58.90
2018-04-13T08:05:10.594Z,58.90
2018-04-13T08:07:37.583Z,58.90
2018-04-13T08:10:04.583Z,58.90
2018-04-13T08:12:32.406Z,58.90
2018-04-13T08:14:59.595Z,58.90
2018-04-13T08:17:26.321Z,58.90
2018-04-13T08:19:53.314Z,58.90
2018-04-13T08:22:20.304Z,59.20
2018-04-13T08:24:47.293Z,58.80
2018-04-13T08:27:14.295Z,58.90
2018-04-13T08:29:41.276Z,58.90
2018-04-13T08:32:08.270Z,58.90
2018-04-13T08:34:35.254Z,58.90
2018-04-13T08:37:03.011Z,58.90
2018-04-13T08:39:30.793Z,58.90
2018-04-13T08:41:58.547Z,58.90
2018-04-13T08:44:26.304Z,58.90
2018-04-13T08:46:54.058Z,58.90
2018-04-13T08:49:21.041Z,58.90
2018-04-13T08:51:48.034Z,58.90
2018-04-13T08:54:15.025Z,58.90
2018-04-13T08:56:42.006Z,58.90
2018-04-13T08:59:09.001Z,58.90
2018-04-13T09:01:36.752Z,58.90
2018-04-13T09:04:04.511Z,58.90
2018-04-13T09:06:31.539Z,58.80
2018-04-13T09:08:58.495Z,58.90
2018-04-13T09:11:25.485Z,58.90
2018-04-13T09:13:52.477Z,58.90
2018-04-13T09:16:19.472Z,58.90
2018-04-13T09:18:46.457Z,58.90
2018-04-13T09:21:13.445Z,59.00
2018-04-13T09:23:41.202Z,59.10
2018-04-13T09:26:08.198Z,59.00
2018-04-13T09:28:35.196Z,59.00
2018-04-13T09:31:02.199Z,59.00
2018-04-13T09:33:29.186Z,59.00
2018-04-13T09:35:56.949Z,59.00
2018-04-13T09:38:24.706Z,59.00
2018-04-13T09:40:51.710Z,59.00
2018-04-13T09:43:18.697Z,59.50
2018-04-13T09:45:45.714Z,59.00
2018-04-13T09:48:12.707Z,59.40
2018-04-13T09:50:40.467Z,59.00
2018-04-13T09:53:08.222Z,59.00
2018-04-13T09:55:35.974Z,59.00
2018-04-13T09:58:02.969Z,59.00
2018-04-13T10:00:29.974Z,59.00
2018-04-13T10:03:02.953Z,59.00
2018-04-13T10:05:29.945Z,59.10
2018-04-13T10:07:56.942Z,59.00
2018-04-13T10:10:23.931Z,59.10
2018-04-13T10:12:50.930Z,59.10
2018-04-13T10:15:17.913Z,59.10
2018-04-13T10:17:44.921Z,59.10
2018-04-13T10:20:11.921Z,59.00
2018-04-13T10:22:38.912Z,59.10
2018-04-13T10:25:05.902Z,59.10
2018-04-13T10:27:32.898Z,59.10
2018-04-13T10:29:59.883Z,59.10
2018-04-13T10:32:26.901Z,59.10
2018-04-13T10:34:53.885Z,59.70
2018-04-13T10:37:20.875Z,59.00
2018-04-13T10:39:47.861Z,59.10
2018-04-13T10:42:15.613Z,59.10
2018-04-13T10:44:43.369Z,59.10
2018-04-13T10:47:11.126Z,59.70
2018-04-13T10:49:38.126Z,59.10
2018-04-13T10:52:05.113Z,59.10
2018-04-13T10:54:32.143Z,59.10
2018-04-13T10:56:59.135Z,59.10
2018-04-13T10:59:26.125Z,59.10
2018-04-13T11:01:53.116Z,59.10
2018-04-13T11:04:20.874Z,59.10
2018-04-13T11:06:47.866Z,58.90
2018-04-13T11:09:14.858Z,58.90
2018-04-13T11:11:41.857Z,58.90
2018-04-13T11:14:08.845Z,58.60
2018-04-13T11:16:35.850Z,59.00
2018-04-13T11:19:02.842Z,59.00
2018-04-13T11:21:29.854Z,58.90
2018-04-13T11:23:56.847Z,59.00
2018-04-13T11:26:24.610Z,59.00
2018-04-13T11:28:52.362Z,59.10
2018-04-13T11:31:20.121Z,59.70
2018-04-13T11:33:47.114Z,59.10
2018-04-13T11:36:14.110Z,59.10
2018-04-13T11:38:41.105Z,59.10
2018-04-13T11:41:08.103Z,59.20
2018-04-13T11:43:35.094Z,59.30
2018-04-13T11:46:02.092Z,59.30
2018-04-13T11:48:29.086Z,59.30
2018-04-13T11:50:56.085Z,59.30
2018-04-13T11:53:23.070Z,59.20
2018-04-13T11:55:50.070Z,59.20
2018-04-13T11:58:17.058Z,59.40
2018-04-13T12:00:44.065Z,59.30
2018-04-13T12:03:11.062Z,59.40
2018-04-13T12:05:38.050Z,59.70
2018-04-13T12:08:05.041Z,59.40
2018-04-13T12:10:32.026Z,59.50
2018-04-13T12:12:59.014Z,59.40
2018-04-13T12:15:26.770Z,59.30
2018-04-13T12:17:53.761Z,59.30
2018-04-13T12:20:20.750Z,59.30
2018-04-13T12:22:47.747Z,59.40
2018-04-13T12:25:14.738Z,59.40
2018-04-13T12:27:41.738Z,59.40
2018-04-13T12:30:08.726Z,59.40
2018-04-13T12:32:35.726Z,59.40
2018-04-13T12:35:02.719Z,59.40
2018-04-13T12:37:29.740Z,59.50
2018-04-13T12:39:56.729Z,59.50
2018-04-13T12:42:24.496Z,59.50
2018-04-13T12:44:52.253Z,60.20
2018-04-13T12:47:20.010Z,59.50
2018-04-13T12:49:46.998Z,59.50
2018-04-13T12:52:13.996Z,59.50
2018-04-13T12:54:41.258Z,59.40
2018-04-13T12:57:07.994Z,59.40
2018-04-13T12:59:35.745Z,59.50
2018-04-13T13:02:02.747Z,59.40
2018-04-13T13:04:29.746Z,59.40
2018-04-13T13:06:56.744Z,59.50
2018-04-13T13:09:23.750Z,59.50
2018-04-13T13:11:51.610Z,59.50
2018-04-13T13:14:19.369Z,59.40
2018-04-13T13:16:47.120Z,59.40
2018-04-13T13:19:14.120Z,59.40
2018-04-13T13:21:41.112Z,59.50
2018-04-13T13:24:08.182Z,59.50
2018-04-13T13:26:35.933Z,59.60
2018-04-13T13:29:03.716Z,59.60
2018-04-13T13:31:31.525Z,59.50
2018-04-13T13:33:59.238Z,59.00
2018-04-13T13:36:26.986Z,59.10
2018-04-13T13:38:53.982Z,59.00
2018-04-13T13:41:20.972Z,59.40
2018-04-13T13:43:47.963Z,59.70
2018-04-13T13:46:14.962Z,60.40
2018-04-13T13:48:41.954Z,60.90
2018-04-13T13:51:08.945Z,60.80
2018-04-13T13:53:35.946Z,60.70
2018-04-13T13:56:02.935Z,61.20
2018-04-13T13:58:29.934Z,60.90
2018-04-13T14:00:56.925Z,60.50
2018-04-13T14:03:23.910Z,60.90
2018-04-13T14:05:51.662Z,60.70
2018-04-13T14:08:19.421Z,60.70
2018-04-13T14:10:47.187Z,60.50
2018-04-13T14:13:14.938Z,60.20
2018-04-13T14:15:41.953Z,60.10
2018-04-13T14:18:08.934Z,60.10
2018-04-13T14:20:35.931Z,59.90
2018-04-13T14:23:02.913Z,59.80
2018-04-13T14:25:29.910Z,59.70
2018-04-13T14:27:56.898Z,59.70
2018-04-13T14:30:23.923Z,59.70
2018-04-13T14:32:51.448Z,59.80
2018-04-13T14:35:18.442Z,59.40
2018-04-13T14:37:45.442Z,59.50
2018-04-13T14:40:12.431Z,59.80
2018-04-13T14:42:39.418Z,59.70
2018-04-13T14:45:07.178Z,59.80
2018-04-13T14:47:34.954Z,59.40
2018-04-13T14:50:01.971Z,59.40
2018-04-13T14:52:28.965Z,59.80
2018-04-13T14:54:56.001Z,59.80
2018-04-13T14:57:24.268Z,59.80
2018-04-13T14:59:51.269Z,59.80
2018-04-13T15:02:18.279Z,59.70
2018-04-13T15:04:45.330Z,59.70
2018-04-13T15:07:12.450Z,59.80
2018-04-13T15:09:40.202Z,59.80
2018-04-13T15:12:07.977Z,59.00
2018-04-13T15:14:35.710Z,59.00
2018-04-13T15:17:02.853Z,59.10
2018-04-13T15:19:30.631Z,59.70
2018-04-13T15:21:57.636Z,59.70
2018-04-13T15:24:24.625Z,59.80
2018-04-13T15:26:52.377Z,60.00
2018-04-13T15:29:19.357Z,59.80
2018-04-13T15:31:46.345Z,59.70
2018-04-13T15:34:13.593Z,59.80
2018-04-13T15:36:40.600Z,59.70
2018-04-13T15:39:07.597Z,59.70
2018-04-13T15:41:34.577Z,59.70
2018-04-13T15:44:02.997Z,59.70
2018-04-13T15:46:29.989Z,59.70
2018-04-13T15:48:56.980Z,59.70
2018-04-13T15:51:23.974Z,60.10
2018-04-13T15:53:50.974Z,59.70
2018-04-13T15:56:17.963Z,59.70
2018-04-13T15:58:44.968Z,59.80
2018-04-13T16:01:11.995Z,59.70
2018-04-13T16:03:38.986Z,59.70
2018-04-13T16:06:05.977Z,59.70
2018-04-13T16:08:32.971Z,59.70
2018-04-13T16:10:59.986Z,59.70
2018-04-13T16:13:26.978Z,59.70
2018-04-13T16:15:53.973Z,59.80
2018-04-13T16:18:20.965Z,59.70
2018-04-13T16:20:48.078Z,59.70
2018-04-13T16:23:15.083Z,59.70
2018-04-13T16:25:42.841Z,59.80
2018-04-13T16:28:09.906Z,59.70
2018-04-13T16:30:38.170Z,59.80
2018-04-13T16:33:05.981Z,59.70
2018-04-13T16:35:32.995Z,59.70
2018-04-13T16:38:00.754Z,59.80
2018-04-13T16:40:28.543Z,59.80
2018-04-13T16:42:55.534Z,59.70
2018-04-13T16:45:22.537Z,59.70
2018-04-13T16:47:49.531Z,59.70
2018-04-13T16:50:16.526Z,59.70
2018-04-13T16:52:43.519Z,59.70
2018-04-13T16:55:10.514Z,59.70
2018-04-13T16:57:37.511Z,59.70
2018-04-13T17:00:04.502Z,59.70
2018-04-13T17:02:31.509Z,59.70
2018-04-13T17:04:58.502Z,59.70
2018-04-13T17:07:25.501Z,59.70
2018-04-13T17:09:52.493Z,59.70
2018-04-13T17:12:19.480Z,59.70
2018-04-13T17:14:46.476Z,59.70
2018-04-13T17:17:13.506Z,59.70
2018-04-13T17:19:41.267Z,59.80
2018-04-13T17:22:09.010Z,59.80
2018-04-13T17:24:36.005Z,59.70
2018-04-13T17:27:03.049Z,59.70
2018-04-13T17:29:30.042Z,59.70
2018-04-13T17:31:57.031Z,59.70
2018-04-13T17:34:24.029Z,59.70
2018-04-13T17:36:51.082Z,60.40
2018-04-13T17:39:18.852Z,60.10
2018-04-13T17:41:45.838Z,60.00
2018-04-13T17:44:12.829Z,59.70
2018-04-13T17:46:39.827Z,59.80
2018-04-13T17:49:06.819Z,59.60
2018-04-13T17:51:33.828Z,59.60
2018-04-13T17:54:00.818Z,59.70
2018-04-13T17:56:27.815Z,59.80
2018-04-13T17:58:54.812Z,59.80
2018-04-13T18:01:21.810Z,59.70
2018-04-13T18:03:48.799Z,59.80
2018-04-13T18:06:15.789Z,59.80
2018-04-13T18:08:42.789Z,59.60
2018-04-13T18:11:09.790Z,59.60
2018-04-13T18:13:36.783Z,59.80
2018-04-13T18:16:03.785Z,59.80
2018-04-13T18:18:30.783Z,60.10
2018-04-13T18:20:57.779Z,60.10
2018-04-13T18:23:24.765Z,60.10
2018-04-13T18:25:51.766Z,60.00
2018-04-13T18:28:18.763Z,59.50
2018-04-13T18:30:45.750Z,59.80
2018-04-13T18:33:12.751Z,59.90
2018-04-13T18:35:39.733Z,60.00
2018-04-13T18:38:06.742Z,60.10
2018-04-13T18:40:33.733Z,59.90
2018-04-13T18:43:00.734Z,59.80
2018-04-13T18:45:27.722Z,59.70
2018-04-13T18:47:54.730Z,59.70
2018-04-13T18:50:21.718Z,59.80
2018-04-13T18:52:48.723Z,59.90
2018-04-13T18:55:15.722Z,60.00
2018-04-13T18:57:42.717Z,60.80
2018-04-13T19:00:09.782Z,60.00
2018-04-13T19:02:37.553Z,59.80
2018-04-13T19:05:04.557Z,59.70
2018-04-13T19:07:31.547Z,59.80
2018-04-13T19:09:58.590Z,59.80
2018-04-13T19:12:25.586Z,59.70
2018-04-13T19:14:52.577Z,59.70
2018-04-13T19:17:20.566Z,59.80
2018-04-13T19:19:47.648Z,59.70
2018-04-13T19:22:14.662Z,59.70
2018-04-13T19:24:41.671Z,59.80
2018-04-13T19:27:09.421Z,59.80
2018-04-13T19:29:36.860Z,59.70
2018-04-13T19:32:03.861Z,59.70
2018-04-13T19:34:30.907Z,59.70
2018-04-13T19:36:57.894Z,59.70
2018-04-13T19:39:24.906Z,59.70
2018-04-13T19:41:51.890Z,59.70
2018-04-13T19:44:18.881Z,59.70
2018-04-13T19:46:45.874Z,59.70
2018-04-13T19:49:12.867Z,59.70
2018-04-13T19:51:40.622Z,59.80
2018-04-13T19:54:08.382Z,59.80
2018-04-13T19:56:36.146Z,59.80
2018-04-13T19:59:03.908Z,59.80
2018-04-13T20:01:31.734Z,59.40
2018-04-13T20:03:58.727Z,59.70
2018-04-13T20:06:26.473Z,59.80
2018-04-13T20:08:53.478Z,59.70
2018-04-13T20:11:20.470Z,59.80
2018-04-13T20:13:47.460Z,59.70
2018-04-13T20:16:20.374Z,59.80
2018-04-13T20:18:47.434Z,59.70
2018-04-13T20:21:15.402Z,59.70
2018-04-13T20:23:42.402Z,59.60
2018-04-13T20:26:09.645Z,59.60
2018-04-13T20:28:36.652Z,59.70
2018-04-13T20:31:03.643Z,59.70
2018-04-13T20:33:30.636Z,59.70
2018-04-13T20:35:58.394Z,59.70
2018-04-13T20:38:25.403Z,59.80
2018-04-13T20:40:53.140Z,59.80
2018-04-13T20:43:20.136Z,59.80
2018-04-13T20:45:47.118Z,59.70
2018-04-13T20:48:14.883Z,59.80
2018-04-13T20:50:42.642Z,59.80
2018-04-13T20:53:11.113Z,59.80
2018-04-13T20:55:38.103Z,59.60
2018-04-13T20:58:05.109Z,59.60
2018-04-13T21:00:32.102Z,59.70
2018-04-13T21:02:59.098Z,59.80
2018-04-13T21:05:26.109Z,59.60
2018-04-13T21:07:53.098Z,59.70
2018-04-13T21:10:20.859Z,59.80
2018-04-13T21:12:47.849Z,59.60
2018-04-13T21:15:14.846Z,60.50
2018-04-13T21:17:41.839Z,59.60
2018-04-13T21:20:08.828Z,59.70
2018-04-13T21:22:35.953Z,59.70
2018-04-13T21:25:03.097Z,59.70
2018-04-13T21:27:30.225Z,59.70
2018-04-13T21:29:57.319Z,59.70
2018-04-13T21:32:24.416Z,59.70
2018-04-13T21:34:51.516Z,59.70
2018-04-13T21:37:18.491Z,59.60
2018-04-13T21:39:46.243Z,59.80
2018-04-13T21:42:13.997Z,59.70
2018-04-13T21:44:40.993Z,59.60
2018-04-13T21:47:08.002Z,59.70
2018-04-13T21:49:35.765Z,59.70
2018-04-13T21:52:03.574Z,59.70
2018-04-13T21:54:30.572Z,59.60
2018-04-13T21:56:58.332Z,59.70
2018-04-13T21:59:26.089Z,59.70
2018-04-13T22:01:53.078Z,59.60
2018-04-13T22:04:20.075Z,59.70
2018-04-13T22:06:47.070Z,59.60
2018-04-13T22:09:14.070Z,59.60
2018-04-13T22:11:41.063Z,59.60
2018-04-13T22:14:14.001Z,59.60
2018-04-13T22:16:40.953Z,59.60
2018-04-13T22:19:07.943Z,59.60
2018-04-13T22:21:34.926Z,59.70
2018-04-13T22:24:01.913Z,59.60
2018-04-13T22:26:28.906Z,59.60
2018-04-13T22:28:55.894Z,59.60
2018-04-13T22:31:23.643Z,59.60
2018-04-13T22:33:51.409Z,59.70
2018-04-13T22:36:18.398Z,59.60
2018-04-13T22:38:45.385Z,59.70
2018-04-13T22:41:12.368Z,59.60
2018-04-13T22:43:39.373Z,59.60
2018-04-13T22:46:06.358Z,59.60
2018-04-13T22:48:33.350Z,59.60
2018-04-13T22:51:01.110Z,59.60
2018-04-13T22:53:28.102Z,59.50
2018-04-13T22:55:55.858Z,59.70
2018-04-13T22:58:23.619Z,59.70
2018-04-13T23:00:51.382Z,59.70
2018-04-13T23:03:19.177Z,59.70
2018-04-13T23:05:46.905Z,59.70
2018-04-13T23:08:14.665Z,59.90
2018-04-13T23:10:41.662Z,59.60
2018-04-13T23:13:08.654Z,59.70
2018-04-13T23:15:35.637Z,59.60
2018-04-13T23:18:02.681Z,59.60
2018-04-13T23:20:29.617Z,59.60
2018-04-13T23:22:56.606Z,59.60
2018-04-13T23:25:23.594Z,59.60
2018-04-13T23:27:51.346Z,59.70
2018-04-13T23:30:18.333Z,59.60
2018-04-13T23:32:45.327Z,60.30
2018-04-13T23:35:12.338Z,59.60
2018-04-13T23:37:39.330Z,59.60
2018-04-13T23:40:06.313Z,59.60
2018-04-13T23:42:33.300Z,60.30
2018-04-13T23:45:00.293Z,59.60
2018-04-13T23:47:27.285Z,59.60
2018-04-13T23:49:55.036Z,59.60
2018-04-13T23:52:22.029Z,59.60
2018-04-13T23:54:49.792Z,59.60
2018-04-13T23:57:17.547Z,59.70
2018-04-13T23:59:44.559Z,59.60
